Time;durP1;ratioP1;P1;durP2;ratioP2;P2;SDS_P1;SDS_P2;PMS_P1;PMS_P2;Temp;Humidity;BMP_temperature;BMP_pressure;BME280_temperature;BME280_humidity;BME280_pressure;Samples;Min_cycle;Max_cycle;Signal;HPM_P1;HPM_P2
2023/07/05 00:01:47;;;;;;;;;;;18.70;50.50;;;14.85;96.32;95261.06;4945873;28;19914;-42
2023/07/05 00:04:13;;;;;;;;;;;18.70;50.60;;;14.88;96.20;95250.53;4941114;28;19917;-42
2023/07/05 00:06:39;;;;;;;;;;;18.80;50.80;;;14.90;96.30;95251.03;4953302;28;19910;-42
2023/07/05 00:09:04;;;;;;;;;;;18.80;50.80;;;14.97;95.90;95248.75;4943318;28;20397;-46
2023/07/05 00:11:30;;;;;;;;;;;18.80;50.90;;;15.07;95.60;95249.63;4934303;29;19910;-44
2023/07/05 00:13:56;;;;;;;;;;;18.90;51.00;;;15.14;95.22;95253.50;4951237;29;19913;-42
2023/07/05 00:16:22;;;;;;;;;;;18.90;51.10;;;15.19;94.49;95249.91;4953565;28;19977;-42
2023/07/05 00:18:48;;;;;;;;;;;19.00;51.10;;;15.23;94.25;95254.38;4953860;28;20365;-44
2023/07/05 00:21:13;;;;;;;;;;;19.00;51.10;;;15.26;94.09;95250.28;4942398;28;20057;-47
2023/07/05 00:23:45;;;;;;;;;;;19.10;51.10;;;15.28;94.30;95248.88;4951648;28;19910;-45
2023/07/05 00:26:12;;;;;;;;;;;19.10;51.10;;;15.31;93.85;95247.50;4952429;28;20002;-46
2023/07/05 00:28:37;;;;;;;;;;;19.20;51.10;;;15.32;93.07;95240.22;4940657;28;20285;-43
2023/07/05 00:31:05;;;;;;;;;;;19.20;51.20;;;15.30;93.09;95237.06;4952036;29;19921;-44
2023/07/05 00:33:31;;;;;;;;;;;19.20;51.10;;;15.27;93.27;95236.56;4947867;28;19956;-45
2023/07/05 00:35:58;;;;;;;;;;;19.20;51.10;;;15.22;94.47;95230.50;4955343;28;19917;-43
2023/07/05 00:38:24;;;;;;;;;;;19.20;51.10;;;15.24;94.65;95234.50;4956601;28;19960;-46
2023/07/05 00:40:51;;;;;;;;;;;19.20;51.10;;;15.20;94.88;95224.69;4943047;28;20005;-45
2023/07/05 00:43:19;;;;;;;;;;;19.20;51.10;;;15.18;95.07;95218.81;4950901;28;20004;-43
2023/07/05 00:45:56;;;;;;;;;;;19.10;51.20;;;15.04;97.82;95213.47;4956269;28;19949;-45
2023/07/05 00:48:37;;;;;;;;;;;19.10;51.20;;;15.05;96.07;95198.97;4957218;28;19910;-45
2023/07/05 00:51:22;;;;;;;;;;;19.10;51.40;;;14.94;98.51;95208.31;4946933;28;20408;-43
2023/07/05 00:53:48;;;;;;;;;;;19.00;51.40;;;14.92;98.50;95202.47;4956723;28;19918;-45
2023/07/05 00:56:28;;;;;;;;;;;19.00;51.50;;;14.87;100.00;95195.31;4947265;28;20262;-43
2023/07/05 00:58:58;;;;;;;;;;;18.90;51.60;;;14.91;100.00;95195.50;4956976;28;20424;-44
2023/07/05 01:01:24;;;;;;;;;;;18.90;51.80;;;14.90;100.00;95199.31;4951393;28;20397;-43
2023/07/05 01:03:57;;;;;;;;;;;18.90;51.80;;;14.93;99.40;95187.97;4946301;28;19918;-43
2023/07/05 01:06:25;;;;;;;;;;;18.90;52.00;;;14.93;99.42;95191.44;4966748;28;20373;-44
2023/07/05 01:08:52;;;;;;;;;;;18.90;52.00;;;14.90;100.00;95188.56;4946011;28;19918;-43
2023/07/05 01:11:55;;;;;;;;;;;18.90;52.10;;;14.90;100.00;95184.00;4953319;28;19917;-43
2023/07/05 01:14:58;;;;;;;;;;;18.90;52.20;;;14.96;100.00;95188.16;4945266;28;20017;-45
2023/07/05 01:18:17;;;;;;;;;;;18.90;52.30;;;14.99;100.00;95189.44;4937402;28;20297;-42
2023/07/05 01:20:51;;;;;;;;;;;18.90;52.40;;;15.00;100.00;95177.63;4942390;28;19940;-43
2023/07/05 01:23:40;;;;;;;;;;;18.90;52.60;;;15.01;100.00;95171.97;4946642;28;19910;-46
2023/07/05 01:26:36;;;;;;;;;;;18.90;52.60;;;15.12;100.00;95182.47;4940880;28;19925;-48
2023/07/05 01:29:18;;;;;;;;;;;18.90;52.80;;;15.30;100.00;95176.16;4943523;28;19911;-47
2023/07/05 01:32:12;;;;;;;;;;;19.00;53.00;;;15.40;100.00;95188.53;4955386;28;19910;-45
2023/07/05 01:34:57;;;;;;;;;;;19.10;53.10;;;15.45;99.80;95226.78;4945837;28;19917;-45
2023/07/05 01:37:40;;;;;;;;;;;19.20;53.10;;;15.50;99.71;95272.28;4954612;28;19917;-45
2023/07/05 01:40:21;;;;;;;;;;;19.30;53.20;;;15.70;100.00;95302.50;4950326;28;19917;-45
2023/07/05 01:43:01;;;;;;;;;;;19.40;53.60;;;15.90;100.00;95285.09;4940197;28;20281;-46
2023/07/05 01:45:42;;;;;;;;;;;19.50;53.70;;;16.07;100.00;95301.31;4951965;28;19914;-45
2023/07/05 01:48:27;;;;;;;;;;;19.50;53.90;;;16.17;100.00;95290.34;4942966;28;20381;-45
2023/07/05 01:51:11;;;;;;;;;;;19.60;54.10;;;16.22;100.00;95291.31;4945306;28;19910;-45
2023/07/05 01:54:00;;;;;;;;;;;19.60;54.00;;;16.25;100.00;95283.44;4956086;28;20276;-44
2023/07/05 01:56:46;;;;;;;;;;;19.70;54.00;;;16.28;100.00;95280.13;4954699;28;19914;-43
2023/07/05 01:59:18;;;;;;;;;;;19.70;54.10;;;16.28;100.00;95277.44;4945267;28;19919;-43
2023/07/05 02:01:46;;;;;;;;;;;19.70;54.20;;;16.28;100.00;95282.81;4967075;28;19910;-44
2023/07/05 02:04:13;;;;;;;;;;;19.80;54.20;;;16.27;100.00;95301.94;4956245;28;20320;-45
2023/07/05 02:06:43;;;;;;;;;;;19.80;54.30;;;16.18;100.00;95305.38;4941761;28;19917;-46
2023/07/05 02:09:09;;;;;;;;;;;19.80;54.40;;;16.15;100.00;95313.25;4942247;28;19918;-44
2023/07/05 02:11:34;;;;;;;;;;;19.80;54.40;;;16.10;100.00;95308.00;4941164;28;19918;-44
2023/07/05 02:14:00;;;;;;;;;;;19.80;54.60;;;16.11;100.00;95321.13;4954986;28;19910;-45
2023/07/05 02:16:26;;;;;;;;;;;19.70;54.70;;;16.09;100.00;95301.81;4951531;28;19960;-46
2023/07/05 02:18:51;;;;;;;;;;;19.70;54.80;;;16.05;100.00;95308.13;4955804;28;20017;-44
2023/07/05 02:21:17;;;;;;;;;;;19.60;54.80;;;16.04;100.00;95303.84;4949427;28;19911;-44
2023/07/05 02:23:43;;;;;;;;;;;19.60;55.00;;;16.01;100.00;95304.44;4947962;28;19910;-43
2023/07/05 02:26:09;;;;;;;;;;;19.60;55.10;;;15.97;100.00;95290.84;4954690;28;19972;-45
2023/07/05 02:28:35;;;;;;;;;;;19.50;55.20;;;15.93;100.00;95279.13;4944195;28;20293;-44
2023/07/05 02:31:11;;;;;;;;;;;19.50;55.30;;;15.91;100.00;95275.94;4940642;28;19914;-45
2023/07/05 02:33:39;;;;;;;;;;;19.50;55.40;;;15.82;100.00;95272.41;4942666;28;19957;-46
2023/07/05 02:36:12;;;;;;;;;;;19.50;55.40;;;15.78;100.00;95282.97;4953954;28;19916;-48
2023/07/05 02:38:40;;;;;;;;;;;19.40;55.40;;;15.72;100.00;95292.22;4952865;28;19914;-47
2023/07/05 02:41:07;;;;;;;;;;;19.40;55.50;;;15.67;100.00;95301.22;4941017;28;20008;-48
2023/07/05 02:43:34;;;;;;;;;;;19.40;55.60;;;15.64;100.00;95303.69;4937924;28;20314;-46
2023/07/05 02:46:00;;;;;;;;;;;19.40;55.60;;;15.57;100.00;95340.84;4945764;28;19910;-49
2023/07/05 02:48:25;;;;;;;;;;;19.40;55.70;;;15.54;100.00;95350.31;4950886;28;19910;-49
2023/07/05 02:50:51;;;;;;;;;;;19.30;55.80;;;15.56;100.00;95328.53;4953985;28;19913;-49
2023/07/05 02:53:17;;;;;;;;;;;19.30;56.50;;;15.58;100.00;95337.88;4938442;28;19910;-45
2023/07/05 02:55:43;;;;;;;;;;;19.40;56.10;;;15.57;100.00;95319.38;4957807;28;20373;-46
2023/07/05 02:58:09;;;;;;;;;;;19.30;56.20;;;15.59;100.00;95315.31;4941763;28;19964;-44
2023/07/05 03:00:36;;;;;;;;;;;19.30;56.30;;;15.55;100.00;95314.34;4954652;28;19914;-49
2023/07/05 03:03:02;;;;;;;;;;;19.30;56.40;;;15.57;100.00;95320.19;4951990;28;20324;-48
2023/07/05 03:05:28;;;;;;;;;;;19.30;56.40;;;15.56;100.00;95325.84;4944091;28;20388;-47
2023/07/05 03:07:54;;;;;;;;;;;19.20;56.50;;;15.54;100.00;95323.47;4953465;28;19918;-48
2023/07/05 03:10:20;;;;;;;;;;;19.20;56.60;;;15.52;100.00;95317.63;4946152;28;19914;-46
2023/07/05 03:12:46;;;;;;;;;;;19.20;56.60;;;15.52;100.00;95336.41;4950178;28;20013;-45
2023/07/05 03:15:12;;;;;;;;;;;19.20;56.70;;;15.48;100.00;95338.91;4953846;28;20020;-48
2023/07/05 03:17:38;;;;;;;;;;;19.20;56.80;;;15.49;100.00;95339.69;4941293;28;19921;-46
2023/07/05 03:20:05;;;;;;;;;;;19.20;56.80;;;15.49;100.00;95342.38;4953632;28;19949;-50
2023/07/05 03:22:31;;;;;;;;;;;19.20;56.90;;;15.50;100.00;95341.28;4941613;28;19914;-45
2023/07/05 03:24:56;;;;;;;;;;;19.30;57.00;;;15.48;100.00;95338.09;4954628;28;19917;-46
2023/07/05 03:27:22;;;;;;;;;;;19.20;57.00;;;15.47;100.00;95323.09;4950809;28;20292;-49
2023/07/05 03:29:50;;;;;;;;;;;19.20;57.00;;;15.46;100.00;95324.97;4943512;28;20266;-45
2023/07/05 03:32:16;;;;;;;;;;;19.20;57.00;;;15.45;100.00;95319.94;4940016;28;19910;-46
2023/07/05 03:34:41;;;;;;;;;;;19.30;57.20;;;15.42;100.00;95326.69;4944333;28;19920;-47
2023/07/05 03:37:07;;;;;;;;;;;19.20;57.20;;;15.38;100.00;95322.22;4952455;28;19918;-47
2023/07/05 03:39:33;;;;;;;;;;;19.20;57.30;;;15.38;100.00;95320.31;4948875;28;19917;-47
2023/07/05 03:42:01;;;;;;;;;;;19.20;57.40;;;15.37;100.00;95324.09;4944891;28;20262;-46
2023/07/05 03:44:27;;;;;;;;;;;19.20;57.40;;;15.37;100.00;95323.31;4942671;28;19917;-47
2023/07/05 03:46:53;;;;;;;;;;;19.20;57.60;;;15.37;100.00;95329.47;4950807;28;19914;-46
2023/07/05 03:49:19;;;;;;;;;;;19.20;57.60;;;15.40;100.00;95333.44;4944621;28;19910;-48
2023/07/05 03:51:44;;;;;;;;;;;19.20;57.70;;;15.38;100.00;95325.69;4939926;28;20377;-47
2023/07/05 03:54:11;;;;;;;;;;;19.20;57.70;;;15.40;100.00;95323.50;4944789;28;19910;-53
2023/07/05 03:56:37;;;;;;;;;;;19.30;57.70;;;15.44;100.00;95324.47;4946202;28;19914;-49
2023/07/05 03:59:03;;;;;;;;;;;19.30;57.80;;;15.49;100.00;95321.69;4944063;28;19914;-47
2023/07/05 04:01:31;;;;;;;;;;;19.30;57.90;;;15.53;100.00;95324.56;4940549;28;19917;-48
2023/07/05 04:04:00;;;;;;;;;;;19.30;57.90;;;15.56;100.00;95333.91;4943234;28;19911;-47
2023/07/05 04:06:31;;;;;;;;;;;19.40;58.00;;;15.60;100.00;95337.56;4947001;28;19917;-50
2023/07/05 04:08:58;;;;;;;;;;;19.50;58.00;;;15.61;100.00;95339.97;4943820;28;19917;-47
2023/07/05 04:11:25;;;;;;;;;;;19.50;58.00;;;15.61;100.00;95334.59;4953265;28;20053;-49
2023/07/05 04:13:53;;;;;;;;;;;19.60;58.00;;;15.64;100.00;95331.31;4952982;28;19910;-50
2023/07/05 04:16:24;;;;;;;;;;;19.60;58.00;;;15.67;100.00;95333.44;4953806;29;19914;-49
2023/07/05 04:18:54;;;;;;;;;;;19.60;58.00;;;15.69;100.00;95333.09;4953989;28;19973;-48
2023/07/05 04:21:20;;;;;;;;;;;19.60;58.00;;;15.72;100.00;95335.97;4941108;29;19910;-50
2023/07/05 04:23:46;;;;;;;;;;;19.60;58.00;;;15.74;100.00;95341.06;4958399;28;20274;-50
2023/07/05 04:26:17;;;;;;;;;;;19.70;58.10;;;15.78;100.00;95335.88;4951291;29;20048;-49
2023/07/05 04:28:43;;;;;;;;;;;19.80;58.10;;;15.78;100.00;95338.56;4952509;29;19910;-48
2023/07/05 04:31:17;;;;;;;;;;;19.80;58.10;;;15.78;100.00;95347.41;4953316;28;19910;-51
2023/07/05 04:33:44;;;;;;;;;;;19.80;58.10;;;15.80;100.00;95353.28;4951885;28;19926;-46
2023/07/05 04:36:10;;;;;;;;;;;19.80;58.10;;;15.81;100.00;95354.84;4952978;28;19910;-45
2023/07/05 04:38:36;;;;;;;;;;;19.90;58.10;;;15.80;100.00;95355.97;4952415;28;19914;-45
2023/07/05 04:41:01;;;;;;;;;;;20.00;58.10;;;15.88;100.00;95349.06;4950772;29;19910;-51
2023/07/05 04:43:28;;;;;;;;;;;20.10;58.10;;;15.92;100.00;95350.84;4935871;29;19917;-50
2023/07/05 04:45:57;;;;;;;;;;;20.10;58.10;;;15.99;100.00;95361.19;4944734;28;19926;-45
2023/07/05 04:48:26;;;;;;;;;;;20.10;58.10;;;16.01;100.00;95366.22;4949170;29;19910;-49
2023/07/05 04:50:54;;;;;;;;;;;20.20;58.10;;;16.02;100.00;95365.94;4942786;29;19910;-46
2023/07/05 04:53:21;;;;;;;;;;;20.20;58.10;;;16.02;100.00;95371.31;4949726;29;20373;-47
2023/07/05 04:55:51;;;;;;;;;;;20.20;58.20;;;16.11;100.00;95376.75;4952574;28;19914;-46
2023/07/05 04:58:17;;;;;;;;;;;20.30;58.20;;;16.12;100.00;95381.81;4937003;29;19922;-47
2023/07/05 05:00:46;;;;;;;;;;;20.30;58.20;;;16.12;100.00;95386.41;4953624;28;20006;-49
2023/07/05 05:03:13;;;;;;;;;;;20.30;58.30;;;16.05;100.00;95375.28;4952856;28;20021;-46
2023/07/05 05:05:41;;;;;;;;;;;20.20;58.30;;;16.02;100.00;95362.47;4952969;28;19914;-46
2023/07/05 05:08:07;;;;;;;;;;;20.10;58.50;;;15.95;100.00;95363.69;4946745;28;19965;-45
2023/07/05 05:10:37;;;;;;;;;;;20.00;58.60;;;15.98;100.00;95362.25;4942660;28;20413;-48
2023/07/05 05:13:07;;;;;;;;;;;19.90;58.70;;;15.96;100.00;95370.63;4951120;29;19933;-49
2023/07/05 05:15:40;;;;;;;;;;;19.90;58.80;;;16.00;100.00;95361.97;4952375;28;19914;-46
2023/07/05 05:18:07;;;;;;;;;;;19.90;58.80;;;16.02;100.00;95365.16;4952770;28;19914;-46
2023/07/05 05:20:34;;;;;;;;;;;20.00;58.90;;;15.93;100.00;95370.44;4952505;28;19954;-46
2023/07/05 05:23:00;;;;;;;;;;;20.10;58.90;;;16.06;100.00;95380.34;4956758;28;20012;-48
2023/07/05 05:25:27;;;;;;;;;;;20.10;58.80;;;16.13;100.00;95383.41;4956737;28;19910;-47
2023/07/05 05:27:53;;;;;;;;;;;20.20;58.90;;;16.13;100.00;95379.91;4941122;28;20317;-47
2023/07/05 05:30:20;;;;;;;;;;;20.20;59.00;;;16.17;100.00;95379.03;4942509;28;20436;-46
2023/07/05 05:32:46;;;;;;;;;;;20.30;59.60;;;16.19;100.00;95378.72;4945243;28;19917;-49
2023/07/05 05:35:16;;;;;;;;;;;20.40;58.90;;;16.23;100.00;95384.25;4956591;28;20041;-46
2023/07/05 05:37:42;;;;;;;;;;;20.50;58.80;;;16.22;100.00;95377.31;4955494;28;19914;-46
2023/07/05 05:40:10;;;;;;;;;;;20.60;58.80;;;16.49;100.00;95365.66;4956029;28;20288;-47
2023/07/05 05:42:37;;;;;;;;;;;20.80;58.70;;;16.80;100.00;95371.84;4943388;28;19914;-46
2023/07/05 05:45:04;;;;;;;;;;;20.90;58.70;;;17.06;100.00;95363.91;4946978;28;19965;-47
2023/07/05 05:47:30;;;;;;;;;;;21.20;58.80;;;17.31;100.00;95367.00;4944717;28;20298;-46
2023/07/05 05:49:56;;;;;;;;;;;21.50;58.70;;;17.55;100.00;95375.47;4954796;28;19914;-46
2023/07/05 05:52:22;;;;;;;;;;;21.80;58.50;;;17.94;100.00;95364.91;4944780;28;19914;-47
2023/07/05 05:54:47;;;;;;;;;;;22.30;58.30;;;18.43;100.00;95370.94;4956333;28;19910;-47
2023/07/05 05:57:13;;;;;;;;;;;22.90;58.20;;;18.75;100.00;95369.63;4947728;28;19911;-47
2023/07/05 05:59:39;;;;;;;;;;;23.30;57.80;;;18.81;96.88;95365.66;4951673;28;19925;-48
2023/07/05 06:02:05;;;;;;;;;;;23.50;57.60;;;18.92;96.81;95374.16;4954970;28;19954;-46
2023/07/05 06:04:31;;;;;;;;;;;23.70;57.40;;;18.96;95.79;95367.03;4943207;28;19917;-47
2023/07/05 06:06:57;;;;;;;;;;;23.80;57.20;;;19.07;95.51;95356.66;4970905;28;19910;-47
2023/07/05 06:09:24;;;;;;;;;;;24.00;57.00;;;19.36;94.84;95367.47;4954998;28;19918;-46
2023/07/05 06:11:50;;;;;;;;;;;24.20;56.90;;;19.74;96.54;95373.97;4955839;28;19910;-46
2023/07/05 06:14:16;;;;;;;;;;;24.50;56.80;;;20.05;92.40;95371.69;4953528;28;20356;-48
2023/07/05 06:16:42;;;;;;;;;;;24.90;56.80;;;20.24;89.34;95365.00;4944407;28;19910;-51
2023/07/05 06:19:08;;;;;;;;;;;25.20;56.70;;;20.62;88.57;95364.88;4947481;28;19918;-47
2023/07/05 06:21:34;;;;;;;;;;;25.60;56.60;;;20.91;85.82;95372.03;4942868;28;19910;-47
2023/07/05 06:23:59;;;;;;;;;;;26.00;56.40;;;21.10;83.62;95376.16;4949788;28;19916;-50
2023/07/05 06:26:25;;;;;;;;;;;26.40;56.20;;;21.18;80.85;95375.22;4954255;28;20595;-50
2023/07/05 06:28:51;;;;;;;;;;;26.70;55.90;;;21.27;81.61;95382.13;4955421;28;20432;-49
2023/07/05 06:31:18;;;;;;;;;;;26.90;55.60;;;21.52;81.95;95379.44;4946223;28;19917;-47
2023/07/05 06:33:44;;;;;;;;;;;27.10;55.40;;;21.54;81.42;95384.56;4939576;28;19917;-47
2023/07/05 06:36:10;;;;;;;;;;;27.10;55.10;;;21.58;77.01;95377.31;4955623;28;19914;-49
2023/07/05 06:38:37;;;;;;;;;;;27.00;55.00;;;21.58;81.56;95382.72;4952697;28;19953;-49
2023/07/05 06:41:03;;;;;;;;;;;27.00;54.90;;;21.45;80.11;95380.03;4950886;28;19910;-47
2023/07/05 06:43:29;;;;;;;;;;;27.00;54.70;;;21.40;76.89;95390.28;4937766;28;19972;-51
2023/07/05 06:45:56;;;;;;;;;;;26.90;54.50;;;21.41;80.46;95386.47;4954286;28;20296;-47
2023/07/05 06:48:24;;;;;;;;;;;26.90;54.40;;;21.69;80.36;95384.66;4965335;28;19929;-50
2023/07/05 06:50:56;;;;;;;;;;;27.00;54.20;;;21.98;81.19;95390.16;4953155;28;19973;-47
2023/07/05 06:53:23;;;;;;;;;;;27.40;54.20;;;22.05;78.89;95393.84;4955039;28;20673;-50
2023/07/05 06:55:50;;;;;;;;;;;27.60;54.70;;;22.27;79.65;95397.22;4954238;28;19914;-48
2023/07/05 06:58:19;;;;;;;;;;;27.60;54.00;;;22.28;77.42;95399.59;4954806;28;19914;-53
2023/07/05 07:00:50;;;;;;;;;;;27.60;53.90;;;22.01;77.32;95397.59;4955144;28;19985;-46
2023/07/05 07:03:17;;;;;;;;;;;27.50;53.70;;;21.70;70.72;95386.22;4953886;28;19917;-47
2023/07/05 07:05:55;;;;;;;;;;;27.30;53.50;;;21.42;72.28;95396.94;4955194;28;19965;-48
2023/07/05 07:08:28;;;;;;;;;;;27.00;53.00;;;21.33;72.87;95392.75;4953582;28;19926;-47
2023/07/05 07:10:54;;;;;;;;;;;26.90;52.90;;;21.16;71.11;95391.03;4941746;28;19917;-46
2023/07/05 07:13:19;;;;;;;;;;;26.70;52.50;;;21.15;72.26;95389.44;4954979;28;19910;-47
2023/07/05 07:15:45;;;;;;;;;;;26.70;52.40;;;21.20;73.42;95387.31;4966222;28;20344;-49
2023/07/05 07:18:11;;;;;;;;;;;26.70;52.20;;;21.35;73.28;95396.72;4954713;28;20020;-48
2023/07/05 07:20:38;;;;;;;;;;;26.70;52.20;;;21.34;72.26;95402.44;4946364;28;19963;-46
2023/07/05 07:23:04;;;;;;;;;;;26.60;52.10;;;21.26;72.32;95412.25;4955258;28;19945;-45
2023/07/05 07:25:30;;;;;;;;;;;26.50;52.10;;;20.95;71.90;95410.06;4954529;28;19910;-45
2023/07/05 07:27:56;;;;;;;;;;;26.40;52.10;;;20.83;73.59;95412.72;4953590;28;19917;-45
2023/07/05 07:30:22;;;;;;;;;;;26.20;51.80;;;20.65;72.78;95414.81;4954757;28;19921;-45
2023/07/05 07:32:48;;;;;;;;;;;26.10;51.70;;;20.54;73.39;95409.81;4952061;28;19910;-45
2023/07/05 07:35:14;;;;;;;;;;;26.00;51.70;;;20.42;74.80;95412.44;4950317;28;19917;-45
2023/07/05 07:37:40;;;;;;;;;;;25.80;51.50;;;20.29;74.22;95411.59;4954449;28;19953;-47
2023/07/05 07:40:08;;;;;;;;;;;25.60;51.60;;;19.96;78.60;95413.41;4949467;28;19982;-44
2023/07/05 07:42:34;;;;;;;;;;;25.30;51.50;;;19.76;81.20;95418.47;4940011;28;19911;-46
2023/07/05 07:45:00;;;;;;;;;;;24.90;51.70;;;19.78;82.87;95410.06;4937981;28;19972;-46
2023/07/05 07:47:26;;;;;;;;;;;24.70;52.00;;;19.47;80.46;95405.72;4954979;28;20436;-44
2023/07/05 07:49:52;;;;;;;;;;;24.50;52.20;;;19.38;83.60;95407.66;4953718;28;19910;-46
2023/07/05 07:52:18;;;;;;;;;;;24.40;52.30;;;19.31;86.04;95415.50;4947132;28;19944;-44
2023/07/05 07:54:45;;;;;;;;;;;24.30;52.50;;;19.22;89.42;95425.53;4949456;28;19977;-45
2023/07/05 07:57:11;;;;;;;;;;;24.10;52.70;;;19.23;91.24;95424.41;4953406;28;19993;-44
2023/07/05 07:59:41;;;;;;;;;;;24.00;53.00;;;19.11;92.72;95446.66;4954564;28;19946;-44
2023/07/05 08:02:12;;;;;;;;;;;23.80;53.40;;;19.02;93.62;95454.00;4953622;28;20044;-44
2023/07/05 08:04:45;;;;;;;;;;;23.60;53.80;;;18.86;96.17;95464.50;4940135;28;19911;-45
2023/07/05 08:07:14;;;;;;;;;;;23.50;54.30;;;18.39;92.19;95442.78;4954016;28;19910;-45
2023/07/05 08:09:41;;;;;;;;;;;23.30;54.60;;;17.92;94.22;95472.22;4950221;28;20382;-45
2023/07/05 08:12:08;;;;;;;;;;;23.10;54.70;;;17.60;95.90;95497.59;4945034;28;19910;-45
2023/07/05 08:14:34;;;;;;;;;;;22.80;54.70;;;17.28;97.60;95494.91;4953350;28;19910;-44
2023/07/05 08:17:00;;;;;;;;;;;22.60;54.80;;;16.79;97.56;95488.59;4954322;28;19988;-46
2023/07/05 08:19:26;;;;;;;;;;;22.30;55.00;;;16.53;100.00;95483.00;4954085;29;19957;-44
2023/07/05 08:21:51;;;;;;;;;;;21.90;55.20;;;16.39;100.00;95491.13;4953229;28;20004;-43
2023/07/05 08:24:17;;;;;;;;;;;21.60;55.60;;;16.23;100.00;95516.72;4954482;28;19917;-44
2023/07/05 08:26:44;;;;;;;;;;;21.30;56.00;;;16.14;100.00;95515.88;4929312;29;19910;-44
2023/07/05 08:29:10;;;;;;;;;;;21.00;56.40;;;16.05;100.00;95513.09;4950765;29;20045;-45
2023/07/05 08:31:36;;;;;;;;;;;20.80;56.70;;;15.89;100.00;95520.69;4954271;28;20383;-44
2023/07/05 08:34:02;;;;;;;;;;;20.60;57.00;;;15.81;100.00;95516.00;4953128;28;19910;-44
2023/07/05 08:36:40;;;;;;;;;;;20.50;57.10;;;15.97;100.00;95508.41;4954015;28;19910;-44
2023/07/05 08:39:07;;;;;;;;;;;20.70;57.20;;;16.06;100.00;95492.41;4949424;28;19946;-47
2023/07/05 08:41:41;;;;;;;;;;;20.90;57.20;;;16.40;100.00;95499.97;4947586;28;19953;-45
2023/07/05 08:44:13;;;;;;;;;;;21.30;57.30;;;16.69;100.00;95499.56;4940682;29;19921;-47
2023/07/05 08:46:41;;;;;;;;;;;21.70;57.30;;;16.95;100.00;95507.06;4954126;28;19917;-45
2023/07/05 08:49:21;;;;;;;;;;;22.00;57.10;;;17.34;100.00;95517.91;4945233;29;19910;-45
2023/07/05 08:51:49;;;;;;;;;;;22.40;57.10;;;17.62;100.00;95512.34;4950565;29;19910;-45
2023/07/05 08:54:16;;;;;;;;;;;22.70;57.00;;;17.89;100.00;95522.13;4942742;29;19910;-46
2023/07/05 08:56:59;;;;;;;;;;;23.00;56.90;;;18.55;100.00;95522.13;4941331;28;19917;-46
2023/07/05 09:00:16;;;;;;;;;;;23.70;56.70;;;19.32;93.13;95528.56;4949562;28;19921;-46
2023/07/05 09:02:42;;;;;;;;;;;24.60;56.50;;;19.82;88.41;95530.66;4935079;29;19921;-46
2023/07/05 09:05:48;;;;;;;;;;;25.30;56.00;;;20.19;89.15;95522.84;4940617;28;19917;-45
2023/07/05 09:08:55;;;;;;;;;;;25.80;55.60;;;20.28;85.12;95520.91;4940179;28;21648;-47
2023/07/05 09:11:48;;;;;;;;;;;26.10;55.20;;;20.10;87.94;95522.91;4950332;28;19988;-45
2023/07/05 09:14:56;;;;;;;;;;;26.20;54.70;;;20.03;90.20;95522.63;4950361;28;20312;-45
2023/07/05 09:18:10;;;;;;;;;;;26.20;54.30;;;19.72;84.79;95524.84;4943773;28;19925;-47
2023/07/05 09:20:53;;;;;;;;;;;26.20;53.80;;;19.75;83.89;95524.19;4957778;28;19910;-46
2023/07/05 09:23:31;;;;;;;;;;;26.20;53.60;;;19.73;80.92;95513.69;4938117;29;19977;-46
2023/07/05 09:26:15;;;;;;;;;;;26.20;53.40;;;20.00;82.78;95514.38;4936438;28;19910;-48
2023/07/05 09:28:59;;;;;;;;;;;26.40;53.30;;;20.34;79.38;95511.47;4955983;28;19910;-46
2023/07/05 09:31:25;;;;;;;;;;;26.70;52.90;;;20.68;77.11;95503.44;4948622;28;20009;-46
2023/07/05 09:34:37;;;;;;;;;;;27.10;52.60;;;20.94;72.69;95506.75;4952063;28;19918;-46
2023/07/05 09:37:34;;;;;;;;;;;27.50;52.30;;;21.17;72.08;95507.16;4943952;28;19914;-45
2023/07/05 09:40:19;;;;;;;;;;;27.80;52.00;;;21.25;72.04;95509.00;4947277;28;19936;-47
2023/07/05 09:43:00;;;;;;;;;;;27.90;51.60;;;21.12;70.82;95496.53;4953100;28;19910;-45
2023/07/05 09:45:27;;;;;;;;;;;27.70;51.40;;;21.27;72.69;95512.13;4950764;28;19941;-46
2023/07/05 09:47:59;;;;;;;;;;;27.60;51.20;;;21.37;65.99;95508.28;4962029;28;19945;-45
2023/07/05 09:50:26;;;;;;;;;;;27.60;51.00;;;21.84;69.04;95510.59;4941400;28;19910;-46
2023/07/05 09:53:10;;;;;;;;;;;27.80;50.50;;;22.36;66.97;95511.84;4944951;28;20285;-48
2023/07/05 09:56:08;;;;;;;;;;;28.20;50.30;;;23.02;63.63;95519.59;4937749;29;20326;-45
2023/07/05 09:58:36;;;;;;;;;;;28.70;49.90;;;23.66;60.09;95517.81;4955302;28;20373;-46
2023/07/05 10:01:04;;;;;;;;;;;29.50;49.30;;;24.02;60.58;95522.22;4956499;28;19910;-48
2023/07/05 10:03:57;;;;;;;;;;;30.00;48.80;;;24.10;58.64;95516.94;4955226;28;20324;-48
2023/07/05 10:06:28;;;;;;;;;;;30.50;48.10;;;24.15;59.22;95519.41;4955642;28;19910;-46
2023/07/05 10:09:00;;;;;;;;;;;30.80;47.10;;;24.61;55.51;95516.97;4955038;28;20440;-45
2023/07/05 10:11:35;;;;;;;;;;;31.40;46.70;;;24.28;55.21;95525.50;4950548;28;19989;-46
2023/07/05 10:14:06;;;;;;;;;;;31.50;46.40;;;23.96;58.66;95529.06;4937303;28;19941;-46
2023/07/05 10:16:46;;;;;;;;;;;31.40;46.20;;;23.92;59.19;95525.47;4956005;28;20001;-47
2023/07/05 10:19:25;;;;;;;;;;;31.70;45.40;;;23.85;60.03;95528.03;4955818;28;19968;-46
2023/07/05 10:22:21;;;;;;;;;;;31.70;45.20;;;23.56;60.47;95523.75;4945023;28;20350;-45
2023/07/05 10:24:57;;;;;;;;;;;31.70;44.70;;;23.21;61.22;95527.09;4944474;28;19913;-47
2023/07/05 10:27:34;;;;;;;;;;;31.60;44.50;;;22.81;61.89;95536.06;4948897;28;19969;-45
2023/07/05 10:30:13;;;;;;;;;;;31.40;44.50;;;22.72;63.03;95538.13;4955768;28;20405;-45
2023/07/05 10:32:41;;;;;;;;;;;31.10;44.30;;;22.21;65.64;95548.56;4942301;28;19914;-46
2023/07/05 10:35:29;;;;;;;;;;;30.80;44.20;;;21.93;64.75;95541.06;4956281;28;19933;-45
2023/07/05 10:37:56;;;;;;;;;;;30.40;44.40;;;22.03;66.59;95545.28;4944595;28;19914;-46
2023/07/05 10:40:23;;;;;;;;;;;30.00;44.50;;;21.78;67.96;95539.06;4955419;28;19911;-45
2023/07/05 10:43:00;;;;;;;;;;;29.70;44.60;;;21.59;68.53;95544.19;4943723;28;19910;-45
2023/07/05 10:45:34;;;;;;;;;;;29.40;44.80;;;21.28;67.99;95545.47;4948124;28;19957;-45
2023/07/05 10:48:02;;;;;;;;;;;29.10;45.00;;;21.16;70.49;95551.63;4957304;28;19910;-45
2023/07/05 10:50:36;;;;;;;;;;;28.80;45.10;;;21.15;77.98;95562.75;4950848;28;20008;-45
2023/07/05 10:53:12;;;;;;;;;;;28.50;45.20;;;20.75;79.19;95568.69;4955416;28;19957;-46
2023/07/05 10:55:57;;;;;;;;;;;28.20;45.30;;;20.47;76.40;95565.66;4947516;28;19910;-46
2023/07/05 10:58:45;;;;;;;;;;;28.00;45.40;;;20.25;75.51;95575.63;4967032;28;19920;-47
2023/07/05 11:01:32;;;;;;;;;;;27.90;45.40;;;20.44;74.94;95569.81;4940679;28;26994;-45
2023/07/05 11:04:12;;;;;;;;;;;27.90;45.50;;;20.54;73.33;95569.44;4942574;28;19917;-45
2023/07/05 11:06:42;;;;;;;;;;;28.00;45.60;;;20.47;73.06;95576.47;4963940;28;20018;-45
2023/07/05 11:09:11;;;;;;;;;;;28.00;45.60;;;20.50;73.79;95567.72;4942642;28;19919;-47
2023/07/05 11:11:57;;;;;;;;;;;27.90;45.60;;;20.68;71.61;95571.09;4940855;28;19980;-47
2023/07/05 11:14:30;;;;;;;;;;;28.00;45.70;;;20.75;69.91;95572.19;4940903;28;19910;-46
2023/07/05 11:16:58;;;;;;;;;;;27.90;45.70;;;20.78;70.08;95584.25;4943072;28;19972;-45
2023/07/05 11:19:30;;;;;;;;;;;27.80;45.70;;;20.62;67.23;95577.81;4936617;28;20240;-45
2023/07/05 11:21:58;;;;;;;;;;;27.80;45.70;;;20.70;69.56;95587.81;4938210;28;19916;-46
2023/07/05 11:24:39;;;;;;;;;;;27.90;45.60;;;20.95;69.43;95586.81;4951531;28;19910;-46
2023/07/05 11:27:23;;;;;;;;;;;27.90;45.50;;;21.18;67.71;95589.97;4953245;28;20304;-48
2023/07/05 11:29:52;;;;;;;;;;;28.10;45.50;;;21.23;67.55;95587.06;4954823;28;19953;-45
2023/07/05 11:32:25;;;;;;;;;;;27.90;45.60;;;21.27;66.64;95587.19;4951240;28;19922;-46
2023/07/05 11:34:54;;;;;;;;;;;27.90;45.80;;;21.08;66.10;95581.47;4945880;28;19961;-47